sensor_id;sensor_type;location;lat;lon;timestamp;temperature;humidity
44509;DHT22;30214;52.246;14.408;2023-04-09T00:02:24;0.90;99.90
44509;DHT22;30214;52.246;14.408;2023-04-09T00:04:56;0.90;99.90
44509;DHT22;30214;52.246;14.408;2023-04-09T00:07:26;0.80;99.90
44509;DHT22;30214;52.246;14.408;2023-04-09T00:09:53;0.80;99.90
44509;DHT22;30214;52.246;14.408;2023-04-09T00:12:21;0.80;99.90
44509;DHT22;30214;52.246;14.408;2023-04-09T00:14:48;0.70;99.90
44509;DHT22;30214;52.246;14.408;2023-04-09T00:17:15;0.70;99.90
44509;DHT22;30214;52.246;14.408;2023-04-09T00:19:43;0.70;99.90
44509;DHT22;30214;52.246;14.408;2023-04-09T00:22:11;0.60;99.90
44509;DHT22;30214;52.246;14.408;2023-04-09T00:24:38;0.60;99.90
44509;DHT22;30214;52.246;14.408;2023-04-09T00:27:05;0.60;99.90
44509;DHT22;30214;52.246;14.408;2023-04-09T00:29:32;0.50;99.90
44509;DHT22;30214;52.246;14.408;2023-04-09T00:31:59;0.60;99.90
44509;DHT22;30214;52.246;14.408;2023-04-09T00:34:26;0.60;99.90
44509;DHT22;30214;52.246;14.408;2023-04-09T00:36:53;0.60;99.90
44509;DHT22;30214;52.246;14.408;2023-04-09T00:39:22;0.50;99.90
44509;DHT22;30214;52.246;14.408;2023-04-09T00:41:49;0.60;99.90
44509;DHT22;30214;52.246;14.408;2023-04-09T00:44:21;0.50;99.90
44509;DHT22;30214;52.246;14.408;2023-04-09T00:46:49;0.50;99.90
44509;DHT22;30214;52.246;14.408;2023-04-09T00:49:16;0.50;99.90
44509;DHT22;30214;52.246;14.408;2023-04-09T00:51:44;0.50;99.90
44509;DHT22;30214;52.246;14.408;2023-04-09T00:54:12;0.50;99.90
44509;DHT22;30214;52.246;14.408;2023-04-09T00:56:41;0.50;99.90
44509;DHT22;30214;52.246;14.408;2023-04-09T00:59:08;0.40;99.90
44509;DHT22;30214;52.246;14.408;2023-04-09T01:01:35;0.40;99.90
44509;DHT22;30214;52.246;14.408;2023-04-09T01:04:02;0.40;99.90
44509;DHT22;30214;52.246;14.408;2023-04-09T01:06:37;0.40;99.90
44509;DHT22;30214;52.246;14.408;2023-04-09T01:09:12;0.40;99.90
44509;DHT22;30214;52.246;14.408;2023-04-09T01:11:49;0.30;99.90
44509;DHT22;30214;52.246;14.408;2023-04-09T01:14:23;0.30;99.90
44509;DHT22;30214;52.246;14.408;2023-04-09T01:16:58;0.30;99.90
44509;DHT22;30214;52.246;14.408;2023-04-09T01:19:40;0.30;99.90
44509;DHT22;30214;52.246;14.408;2023-04-09T01:22:29;0.30;99.90
44509;DHT22;30214;52.246;14.408;2023-04-09T01:25:08;0.20;99.90
44509;DHT22;30214;52.246;14.408;2023-04-09T01:27:54;0.20;99.90
44509;DHT22;30214;52.246;14.408;2023-04-09T01:30:34;0.10;99.90
44509;DHT22;30214;52.246;14.408;2023-04-09T01:33:02;0.10;99.90
44509;DHT22;30214;52.246;14.408;2023-04-09T01:35:31;0.10;99.90
44509;DHT22;30214;52.246;14.408;2023-04-09T01:38:00;0.10;99.90
44509;DHT22;30214;52.246;14.408;2023-04-09T01:40:28;0.20;99.90
44509;DHT22;30214;52.246;14.408;2023-04-09T01:42:56;0.20;99.90
44509;DHT22;30214;52.246;14.408;2023-04-09T01:45:26;0.10;99.90
44509;DHT22;30214;52.246;14.408;2023-04-09T01:47:54;0.10;99.90
44509;DHT22;30214;52.246;14.408;2023-04-09T01:50:22;0.10;99.90
44509;DHT22;30214;52.246;14.408;2023-04-09T01:52:49;0.10;99.90
44509;DHT22;30214;52.246;14.408;2023-04-09T01:55:17;0.00;99.90
44509;DHT22;30214;52.246;14.408;2023-04-09T01:57:44;-0.10;99.90
44509;DHT22;30214;52.246;14.408;2023-04-09T02:00:12;-0.10;99.90
44509;DHT22;30214;52.246;14.408;2023-04-09T02:02:50;-0.10;99.90
44509;DHT22;30214;52.246;14.408;2023-04-09T02:05:23;-0.10;99.90
44509;DHT22;30214;52.246;14.408;2023-04-09T02:07:54;-0.10;99.90
44509;DHT22;30214;52.246;14.408;2023-04-09T02:10:24;-0.10;99.90
44509;DHT22;30214;52.246;14.408;2023-04-09T02:12:54;-0.10;99.90
44509;DHT22;30214;52.246;14.408;2023-04-09T02:15:22;-0.20;99.90
44509;DHT22;30214;52.246;14.408;2023-04-09T02:17:51;-0.20;99.90
44509;DHT22;30214;52.246;14.408;2023-04-09T02:20:18;-0.20;99.90
44509;DHT22;30214;52.246;14.408;2023-04-09T02:22:46;-0.10;99.90
44509;DHT22;30214;52.246;14.408;2023-04-09T02:25:14;-0.10;99.90
44509;DHT22;30214;52.246;14.408;2023-04-09T02:27:41;-0.10;99.90
44509;DHT22;30214;52.246;14.408;2023-04-09T02:30:08;-0.10;99.90
44509;DHT22;30214;52.246;14.408;2023-04-09T02:32:36;-0.20;99.90
44509;DHT22;30214;52.246;14.408;2023-04-09T02:35:05;-0.20;99.90
44509;DHT22;30214;52.246;14.408;2023-04-09T02:37:33;-0.20;99.90
44509;DHT22;30214;52.246;14.408;2023-04-09T02:40:00;-0.20;99.90
44509;DHT22;30214;52.246;14.408;2023-04-09T02:42:29;-0.20;99.90
44509;DHT22;30214;52.246;14.408;2023-04-09T02:44:56;-0.30;99.90
44509;DHT22;30214;52.246;14.408;2023-04-09T02:47:23;-0.20;99.90
44509;DHT22;30214;52.246;14.408;2023-04-09T02:49:51;-0.30;99.90
44509;DHT22;30214;52.246;14.408;2023-04-09T02:52:20;-0.30;99.90
44509;DHT22;30214;52.246;14.408;2023-04-09T02:54:49;-0.30;99.90
44509;DHT22;30214;52.246;14.408;2023-04-09T02:57:16;-0.30;99.90
44509;DHT22;30214;52.246;14.408;2023-04-09T02:59:43;-0.20;99.90
44509;DHT22;30214;52.246;14.408;2023-04-09T03:02:11;-0.20;99.90
44509;DHT22;30214;52.246;14.408;2023-04-09T03:04:38;-0.10;99.90
44509;DHT22;30214;52.246;14.408;2023-04-09T03:07:05;-0.20;99.90
44509;DHT22;30214;52.246;14.408;2023-04-09T03:09:34;-0.20;99.90
44509;DHT22;30214;52.246;14.408;2023-04-09T03:12:01;-0.20;99.90
44509;DHT22;30214;52.246;14.408;2023-04-09T03:14:29;-0.20;99.90
44509;DHT22;30214;52.246;14.408;2023-04-09T03:16:56;-0.20;99.90
44509;DHT22;30214;52.246;14.408;2023-04-09T03:19:23;-0.20;99.90
44509;DHT22;30214;52.246;14.408;2023-04-09T03:21:50;-0.20;99.90
44509;DHT22;30214;52.246;14.408;2023-04-09T03:24:22;-0.20;99.90
44509;DHT22;30214;52.246;14.408;2023-04-09T03:26:51;-0.20;99.90
44509;DHT22;30214;52.246;14.408;2023-04-09T03:29:18;-0.30;99.90
44509;DHT22;30214;52.246;14.408;2023-04-09T03:31:45;-0.30;99.90
44509;DHT22;30214;52.246;14.408;2023-04-09T03:34:12;-0.30;99.90
44509;DHT22;30214;52.246;14.408;2023-04-09T03:36:40;-0.30;99.90
44509;DHT22;30214;52.246;14.408;2023-04-09T03:39:17;-0.40;99.90
44509;DHT22;30214;52.246;14.408;2023-04-09T03:41:44;-0.40;99.90
44509;DHT22;30214;52.246;14.408;2023-04-09T03:44:16;-0.50;99.90
44509;DHT22;30214;52.246;14.408;2023-04-09T03:47:04;-0.50;99.90
44509;DHT22;30214;52.246;14.408;2023-04-09T03:49:33;-0.50;99.90
44509;DHT22;30214;52.246;14.408;2023-04-09T03:52:09;-0.50;99.90
44509;DHT22;30214;52.246;14.408;2023-04-09T03:54:40;-0.50;99.90
44509;DHT22;30214;52.246;14.408;2023-04-09T03:57:14;-0.50;99.90
44509;DHT22;30214;52.246;14.408;2023-04-09T03:59:44;-0.50;99.90
44509;DHT22;30214;52.246;14.408;2023-04-09T04:02:15;-0.50;99.90
44509;DHT22;30214;52.246;14.408;2023-04-09T04:04:47;-0.50;99.90
44509;DHT22;30214;52.246;14.408;2023-04-09T04:07:14;-0.50;99.90
44509;DHT22;30214;52.246;14.408;2023-04-09T04:09:47;-0.50;99.90
44509;DHT22;30214;52.246;14.408;2023-04-09T04:12:17;-0.50;99.90
44509;DHT22;30214;52.246;14.408;2023-04-09T04:15:02;-0.60;99.90
44509;DHT22;30214;52.246;14.408;2023-04-09T04:17:40;-0.60;99.90
44509;DHT22;30214;52.246;14.408;2023-04-09T04:20:17;-0.50;99.90
44509;DHT22;30214;52.246;14.408;2023-04-09T04:22:54;-0.50;99.90
44509;DHT22;30214;52.246;14.408;2023-04-09T04:25:22;-0.60;99.90
44509;DHT22;30214;52.246;14.408;2023-04-09T04:27:50;-0.60;99.90
44509;DHT22;30214;52.246;14.408;2023-04-09T04:30:21;-0.60;99.90
44509;DHT22;30214;52.246;14.408;2023-04-09T04:32:58;-0.60;99.90
44509;DHT22;30214;52.246;14.408;2023-04-09T04:35:28;-0.70;99.90
44509;DHT22;30214;52.246;14.408;2023-04-09T04:37:58;-0.70;99.90
44509;DHT22;30214;52.246;14.408;2023-04-09T04:40:27;-0.70;99.90
44509;DHT22;30214;52.246;14.408;2023-04-09T04:42:59;-0.70;99.90
44509;DHT22;30214;52.246;14.408;2023-04-09T04:45:28;-0.70;99.90
44509;DHT22;30214;52.246;14.408;2023-04-09T04:48:04;-0.70;99.90
44509;DHT22;30214;52.246;14.408;2023-04-09T04:50:31;-0.70;99.90
44509;DHT22;30214;52.246;14.408;2023-04-09T04:53:02;-0.80;99.90
44509;DHT22;30214;52.246;14.408;2023-04-09T04:55:36;-0.80;99.90
44509;DHT22;30214;52.246;14.408;2023-04-09T04:58:06;-0.80;99.90
44509;DHT22;30214;52.246;14.408;2023-04-09T05:00:43;-0.80;99.90
44509;DHT22;30214;52.246;14.408;2023-04-09T05:03:16;-0.70;99.90
44509;DHT22;30214;52.246;14.408;2023-04-09T05:05:54;-0.70;99.90
44509;DHT22;30214;52.246;14.408;2023-04-09T05:08:22;-0.80;99.90
44509;DHT22;30214;52.246;14.408;2023-04-09T05:10:52;-0.90;99.90
44509;DHT22;30214;52.246;14.408;2023-04-09T05:13:21;-0.80;99.90
44509;DHT22;30214;52.246;14.408;2023-04-09T05:15:51;-0.80;99.90
44509;DHT22;30214;52.246;14.408;2023-04-09T05:18:18;-0.70;99.90
44509;DHT22;30214;52.246;14.408;2023-04-09T05:20:45;-0.60;99.90
44509;DHT22;30214;52.246;14.408;2023-04-09T05:23:12;-0.60;99.90
44509;DHT22;30214;52.246;14.408;2023-04-09T05:25:44;-0.50;99.90
44509;DHT22;30214;52.246;14.408;2023-04-09T05:28:20;-0.40;99.90
44509;DHT22;30214;52.246;14.408;2023-04-09T05:30:54;-0.30;99.90
44509;DHT22;30214;52.246;14.408;2023-04-09T05:33:22;-0.20;99.90
44509;DHT22;30214;52.246;14.408;2023-04-09T05:35:49;-0.20;99.90
44509;DHT22;30214;52.246;14.408;2023-04-09T05:38:16;-0.10;99.90
44509;DHT22;30214;52.246;14.408;2023-04-09T05:40:49;-0.10;99.90
44509;DHT22;30214;52.246;14.408;2023-04-09T05:43:16;-0.10;99.90
44509;DHT22;30214;52.246;14.408;2023-04-09T05:45:43;0.00;99.90
44509;DHT22;30214;52.246;14.408;2023-04-09T05:48:11;0.10;99.90
44509;DHT22;30214;52.246;14.408;2023-04-09T05:50:39;0.20;99.90
44509;DHT22;30214;52.246;14.408;2023-04-09T05:53:06;0.20;99.90
44509;DHT22;30214;52.246;14.408;2023-04-09T05:55:38;0.30;99.90
44509;DHT22;30214;52.246;14.408;2023-04-09T05:58:05;0.30;99.90
44509;DHT22;30214;52.246;14.408;2023-04-09T06:00:32;0.40;99.90
44509;DHT22;30214;52.246;14.408;2023-04-09T06:03:01;0.40;99.90
44509;DHT22;30214;52.246;14.408;2023-04-09T06:05:30;0.50;99.90
44509;DHT22;30214;52.246;14.408;2023-04-09T06:07:57;0.60;99.90
44509;DHT22;30214;52.246;14.408;2023-04-09T06:10:24;0.70;99.90
44509;DHT22;30214;52.246;14.408;2023-04-09T06:12:51;0.70;99.90
44509;DHT22;30214;52.246;14.408;2023-04-09T06:15:19;0.70;99.90
44509;DHT22;30214;52.246;14.408;2023-04-09T06:17:46;0.80;99.90
44509;DHT22;30214;52.246;14.408;2023-04-09T06:20:14;1.00;99.90
44509;DHT22;30214;52.246;14.408;2023-04-09T06:22:42;1.10;99.90
44509;DHT22;30214;52.246;14.408;2023-04-09T06:25:09;1.30;99.90
44509;DHT22;30214;52.246;14.408;2023-04-09T06:27:36;1.40;99.90
44509;DHT22;30214;52.246;14.408;2023-04-09T06:30:04;1.50;99.90
44509;DHT22;30214;52.246;14.408;2023-04-09T06:32:32;1.60;99.90
44509;DHT22;30214;52.246;14.408;2023-04-09T06:34:59;1.70;99.90
44509;DHT22;30214;52.246;14.408;2023-04-09T06:37:26;1.90;99.90
44509;DHT22;30214;52.246;14.408;2023-04-09T06:39:55;2.10;99.90
44509;DHT22;30214;52.246;14.408;2023-04-09T06:42:22;2.30;99.90
44509;DHT22;30214;52.246;14.408;2023-04-09T06:44:56;2.50;99.90
44509;DHT22;30214;52.246;14.408;2023-04-09T06:47:23;2.70;99.90
44509;DHT22;30214;52.246;14.408;2023-04-09T06:49:51;2.80;99.90
44509;DHT22;30214;52.246;14.408;2023-04-09T06:52:18;3.10;99.90
44509;DHT22;30214;52.246;14.408;2023-04-09T06:54:45;3.40;99.90
44509;DHT22;30214;52.246;14.408;2023-04-09T06:57:13;3.50;99.90
44509;DHT22;30214;52.246;14.408;2023-04-09T06:59:40;3.60;99.90
44509;DHT22;30214;52.246;14.408;2023-04-09T07:02:08;3.60;99.90
44509;DHT22;30214;52.246;14.408;2023-04-09T07:04:35;3.60;99.90
44509;DHT22;30214;52.246;14.408;2023-04-09T07:07:02;3.60;99.90
44509;DHT22;30214;52.246;14.408;2023-04-09T07:09:30;3.50;99.90
44509;DHT22;30214;52.246;14.408;2023-04-09T07:11:57;3.40;99.90
44509;DHT22;30214;52.246;14.408;2023-04-09T07:14:26;3.30;99.90
44509;DHT22;30214;52.246;14.408;2023-04-09T07:16:53;3.10;99.90
44509;DHT22;30214;52.246;14.408;2023-04-09T07:19:20;3.10;99.90
44509;DHT22;30214;52.246;14.408;2023-04-09T07:21:48;3.30;99.90
44509;DHT22;30214;52.246;14.408;2023-04-09T07:24:15;3.50;99.90
44509;DHT22;30214;52.246;14.408;2023-04-09T07:26:42;3.60;99.90
44509;DHT22;30214;52.246;14.408;2023-04-09T07:29:10;3.90;99.90
44509;DHT22;30214;52.246;14.408;2023-04-09T07:31:38;3.90;99.90
44509;DHT22;30214;52.246;14.408;2023-04-09T07:34:05;4.00;99.90
44509;DHT22;30214;52.246;14.408;2023-04-09T07:36:32;4.20;99.90
44509;DHT22;30214;52.246;14.408;2023-04-09T07:38:59;4.20;99.90
44509;DHT22;30214;52.246;14.408;2023-04-09T07:41:26;4.20;99.90
44509;DHT22;30214;52.246;14.408;2023-04-09T07:43:53;4.20;99.90
44509;DHT22;30214;52.246;14.408;2023-04-09T07:46:21;4.20;99.90
44509;DHT22;30214;52.246;14.408;2023-04-09T07:48:49;4.20;99.90
44509;DHT22;30214;52.246;14.408;2023-04-09T07:51:16;4.30;99.90
44509;DHT22;30214;52.246;14.408;2023-04-09T07:53:43;4.40;99.90
44509;DHT22;30214;52.246;14.408;2023-04-09T07:56:11;4.50;99.90
44509;DHT22;30214;52.246;14.408;2023-04-09T07:58:38;4.70;99.90
44509;DHT22;30214;52.246;14.408;2023-04-09T08:01:05;4.90;99.90
44509;DHT22;30214;52.246;14.408;2023-04-09T08:03:32;5.20;99.90
44509;DHT22;30214;52.246;14.408;2023-04-09T08:06:02;5.40;99.90
44509;DHT22;30214;52.246;14.408;2023-04-09T08:08:29;5.50;99.90
44509;DHT22;30214;52.246;14.408;2023-04-09T08:10:56;5.70;99.90
44509;DHT22;30214;52.246;14.408;2023-04-09T08:13:23;5.70;99.90
44509;DHT22;30214;52.246;14.408;2023-04-09T08:15:51;5.70;99.90
44509;DHT22;30214;52.246;14.408;2023-04-09T08:18:18;5.70;99.90
44509;DHT22;30214;52.246;14.408;2023-04-09T08:20:46;5.70;99.90
44509;DHT22;30214;52.246;14.408;2023-04-09T08:23:15;5.80;99.90
44509;DHT22;30214;52.246;14.408;2023-04-09T08:25:42;5.90;99.90
44509;DHT22;30214;52.246;14.408;2023-04-09T08:28:09;6.00;99.90
44509;DHT22;30214;52.246;14.408;2023-04-09T08:30:36;6.10;99.90
44509;DHT22;30214;52.246;14.408;2023-04-09T08:33:03;6.20;99.90
44509;DHT22;30214;52.246;14.408;2023-04-09T08:35:30;6.40;99.90
44509;DHT22;30214;52.246;14.408;2023-04-09T08:37:58;6.60;99.90
44509;DHT22;30214;52.246;14.408;2023-04-09T08:40:27;6.70;99.90
44509;DHT22;30214;52.246;14.408;2023-04-09T08:42:55;6.90;99.90
44509;DHT22;30214;52.246;14.408;2023-04-09T08:45:22;7.00;99.90
44509;DHT22;30214;52.246;14.408;2023-04-09T08:47:50;7.10;99.90
44509;DHT22;30214;52.246;14.408;2023-04-09T08:50:18;7.10;99.90
44509;DHT22;30214;52.246;14.408;2023-04-09T08:52:46;7.10;99.90
44509;DHT22;30214;52.246;14.408;2023-04-09T08:55:14;7.20;99.90
44509;DHT22;30214;52.246;14.408;2023-04-09T08:57:43;7.10;99.90
44509;DHT22;30214;52.246;14.408;2023-04-09T09:00:11;7.00;99.90
44509;DHT22;30214;52.246;14.408;2023-04-09T09:03:02;7.10;99.90
44509;DHT22;30214;52.246;14.408;2023-04-09T09:05:38;7.20;99.90
44509;DHT22;30214;52.246;14.408;2023-04-09T09:08:07;7.10;99.90
44509;DHT22;30214;52.246;14.408;2023-04-09T09:10:40;7.30;99.90
44509;DHT22;30214;52.246;14.408;2023-04-09T09:13:21;7.40;99.90
44509;DHT22;30214;52.246;14.408;2023-04-09T09:15:51;7.60;99.90
44509;DHT22;30214;52.246;14.408;2023-04-09T09:18:20;7.80;99.90
44509;DHT22;30214;52.246;14.408;2023-04-09T09:20:47;7.70;99.90
44509;DHT22;30214;52.246;14.408;2023-04-09T09:23:15;7.90;99.90
44509;DHT22;30214;52.246;14.408;2023-04-09T09:25:43;8.10;99.90
44509;DHT22;30214;52.246;14.408;2023-04-09T09:28:12;8.30;99.90
44509;DHT22;30214;52.246;14.408;2023-04-09T09:30:41;8.60;99.90
44509;DHT22;30214;52.246;14.408;2023-04-09T09:33:09;8.70;99.90
44509;DHT22;30214;52.246;14.408;2023-04-09T09:35:47;8.70;99.90
44509;DHT22;30214;52.246;14.408;2023-04-09T09:38:15;8.50;99.90
44509;DHT22;30214;52.246;14.408;2023-04-09T09:40:43;8.60;99.90
44509;DHT22;30214;52.246;14.408;2023-04-09T09:43:11;8.50;99.90
44509;DHT22;30214;52.246;14.408;2023-04-09T09:45:41;8.70;99.90
44509;DHT22;30214;52.246;14.408;2023-04-09T09:48:10;8.70;99.90
44509;DHT22;30214;52.246;14.408;2023-04-09T09:50:38;9.10;99.90
44509;DHT22;30214;52.246;14.408;2023-04-09T09:53:07;9.80;99.90
44509;DHT22;30214;52.246;14.408;2023-04-09T09:55:38;10.00;99.90
44509;DHT22;30214;52.246;14.408;2023-04-09T09:58:11;9.90;99.90
44509;DHT22;30214;52.246;14.408;2023-04-09T10:00:45;10.00;99.90
44509;DHT22;30214;52.246;14.408;2023-04-09T10:03:20;9.90;99.90
44509;DHT22;30214;52.246;14.408;2023-04-09T10:05:53;9.90;99.90
44509;DHT22;30214;52.246;14.408;2023-04-09T10:08:21;10.00;99.90
44509;DHT22;30214;52.246;14.408;2023-04-09T10:10:50;10.10;99.90
44509;DHT22;30214;52.246;14.408;2023-04-09T10:13:20;10.20;99.90
44509;DHT22;30214;52.246;14.408;2023-04-09T10:15:55;10.30;99.90
44509;DHT22;30214;52.246;14.408;2023-04-09T10:18:23;10.40;99.90
44509;DHT22;30214;52.246;14.408;2023-04-09T10:20:55;10.50;99.90
44509;DHT22;30214;52.246;14.408;2023-04-09T10:23:33;10.50;99.90
44509;DHT22;30214;52.246;14.408;2023-04-09T10:26:07;10.70;99.90
44509;DHT22;30214;52.246;14.408;2023-04-09T10:28:36;10.80;99.90
44509;DHT22;30214;52.246;14.408;2023-04-09T10:31:06;11.00;99.90
44509;DHT22;30214;52.246;14.408;2023-04-09T10:33:36;11.10;99.90
44509;DHT22;30214;52.246;14.408;2023-04-09T10:36:05;11.20;99.90
44509;DHT22;30214;52.246;14.408;2023-04-09T10:38:38;11.40;99.90
44509;DHT22;30214;52.246;14.408;2023-04-09T10:41:13;11.70;99.90
44509;DHT22;30214;52.246;14.408;2023-04-09T10:43:42;11.80;99.90
44509;DHT22;30214;52.246;14.408;2023-04-09T10:46:27;11.70;99.90
44509;DHT22;30214;52.246;14.408;2023-04-09T10:49:14;11.70;99.90
44509;DHT22;30214;52.246;14.408;2023-04-09T10:51:48;11.80;99.90
44509;DHT22;30214;52.246;14.408;2023-04-09T10:54:39;11.50;99.90
44509;DHT22;30214;52.246;14.408;2023-04-09T10:57:18;11.40;99.90
44509;DHT22;30214;52.246;14.408;2023-04-09T10:59:49;11.60;99.90
44509;DHT22;30214;52.246;14.408;2023-04-09T11:05:32;12.20;99.90
44509;DHT22;30214;52.246;14.408;2023-04-09T11:08:05;12.50;99.90
44509;DHT22;30214;52.246;14.408;2023-04-09T11:10:35;12.70;99.90
44509;DHT22;30214;52.246;14.408;2023-04-09T11:13:02;12.70;99.90
44509;DHT22;30214;52.246;14.408;2023-04-09T11:15:31;11.70;99.90
44509;DHT22;30214;52.246;14.408;2023-04-09T11:18:02;11.30;99.90
44509;DHT22;30214;52.246;14.408;2023-04-09T11:20:33;11.40;99.90
44509;DHT22;30214;52.246;14.408;2023-04-09T11:23:01;11.30;99.90
44509;DHT22;30214;52.246;14.408;2023-04-09T11:25:30;11.70;99.90
44509;DHT22;30214;52.246;14.408;2023-04-09T11:28:01;12.00;99.90
44509;DHT22;30214;52.246;14.408;2023-04-09T11:30:29;12.20;99.90
44509;DHT22;30214;52.246;14.408;2023-04-09T11:33:00;12.40;99.90
44509;DHT22;30214;52.246;14.408;2023-04-09T11:35:28;12.50;99.90
44509;DHT22;30214;52.246;14.408;2023-04-09T11:37:55;11.90;99.90
44509;DHT22;30214;52.246;14.408;2023-04-09T11:40:27;11.80;99.90
44509;DHT22;30214;52.246;14.408;2023-04-09T11:42:56;11.90;99.90
44509;DHT22;30214;52.246;14.408;2023-04-09T11:45:26;11.60;99.90
44509;DHT22;30214;52.246;14.408;2023-04-09T11:47:58;11.70;99.90
44509;DHT22;30214;52.246;14.408;2023-04-09T11:50:36;12.00;99.90
44509;DHT22;30214;52.246;14.408;2023-04-09T11:53:15;12.10;99.90
44509;DHT22;30214;52.246;14.408;2023-04-09T11:55:52;12.00;99.90
44509;DHT22;30214;52.246;14.408;2023-04-09T11:58:28;11.80;99.90
44509;DHT22;30214;52.246;14.408;2023-04-09T12:00:58;11.70;99.90
44509;DHT22;30214;52.246;14.408;2023-04-09T12:03:27;11.20;99.90
44509;DHT22;30214;52.246;14.408;2023-04-09T12:06:00;11.20;99.90
44509;DHT22;30214;52.246;14.408;2023-04-09T12:08:29;11.40;99.90
44509;DHT22;30214;52.246;14.408;2023-04-09T12:11:09;11.70;99.90
44509;DHT22;30214;52.246;14.408;2023-04-09T12:13:40;11.90;99.90
44509;DHT22;30214;52.246;14.408;2023-04-09T12:16:12;12.00;99.90
44509;DHT22;30214;52.246;14.408;2023-04-09T12:18:41;11.60;99.90
44509;DHT22;30214;52.246;14.408;2023-04-09T12:21:13;11.30;99.90
44509;DHT22;30214;52.246;14.408;2023-04-09T12:23:43;10.90;99.90
44509;DHT22;30214;52.246;14.408;2023-04-09T12:26:10;10.90;99.90
44509;DHT22;30214;52.246;14.408;2023-04-09T12:28:39;11.10;99.90
44509;DHT22;30214;52.246;14.408;2023-04-09T12:31:08;11.50;99.90
44509;DHT22;30214;52.246;14.408;2023-04-09T12:33:37;11.70;99.90
44509;DHT22;30214;52.246;14.408;2023-04-09T12:36:05;11.90;99.90
44509;DHT22;30214;52.246;14.408;2023-04-09T12:38:36;12.10;99.90
44509;DHT22;30214;52.246;14.408;2023-04-09T12:41:03;11.90;99.90
44509;DHT22;30214;52.246;14.408;2023-04-09T12:43:32;11.50;99.90
44509;DHT22;30214;52.246;14.408;2023-04-09T12:46:12;11.50;99.90
44509;DHT22;30214;52.246;14.408;2023-04-09T12:48:42;11.70;99.90
44509;DHT22;30214;52.246;14.408;2023-04-09T12:51:10;11.90;99.90
44509;DHT22;30214;52.246;14.408;2023-04-09T12:53:38;12.10;99.90
44509;DHT22;30214;52.246;14.408;2023-04-09T12:56:07;12.10;99.90
44509;DHT22;30214;52.246;14.408;2023-04-09T12:58:34;12.20;99.90
44509;DHT22;30214;52.246;14.408;2023-04-09T13:01:02;12.40;99.90
44509;DHT22;30214;52.246;14.408;2023-04-09T13:03:29;12.40;99.90
44509;DHT22;30214;52.246;14.408;2023-04-09T13:05:56;12.60;99.90
44509;DHT22;30214;52.246;14.408;2023-04-09T13:08:24;12.80;99.90
44509;DHT22;30214;52.246;14.408;2023-04-09T13:10:53;12.80;99.90
44509;DHT22;30214;52.246;14.408;2023-04-09T13:13:20;12.80;99.90
44509;DHT22;30214;52.246;14.408;2023-04-09T13:15:47;12.60;99.90
44509;DHT22;30214;52.246;14.408;2023-04-09T13:18:14;12.70;99.90
44509;DHT22;30214;52.246;14.408;2023-04-09T13:20:44;12.70;99.90
44509;DHT22;30214;52.246;14.408;2023-04-09T13:23:12;12.70;99.90
44509;DHT22;30214;52.246;14.408;2023-04-09T13:25:40;13.00;99.90
44509;DHT22;30214;52.246;14.408;2023-04-09T13:28:09;12.90;99.90
44509;DHT22;30214;52.246;14.408;2023-04-09T13:30:42;12.90;99.90
44509;DHT22;30214;52.246;14.408;2023-04-09T13:33:09;13.00;99.90
44509;DHT22;30214;52.246;14.408;2023-04-09T13:35:37;13.00;99.90
44509;DHT22;30214;52.246;14.408;2023-04-09T13:38:04;13.00;99.90
44509;DHT22;30214;52.246;14.408;2023-04-09T13:40:31;13.00;99.90
44509;DHT22;30214;52.246;14.408;2023-04-09T13:42:58;13.00;99.90
44509;DHT22;30214;52.246;14.408;2023-04-09T13:45:27;13.00;99.90
44509;DHT22;30214;52.246;14.408;2023-04-09T13:47:54;13.00;99.90
44509;DHT22;30214;52.246;14.408;2023-04-09T13:50:21;12.90;99.90
44509;DHT22;30214;52.246;14.408;2023-04-09T13:52:48;12.60;99.90
44509;DHT22;30214;52.246;14.408;2023-04-09T13:55:18;12.60;99.90
44509;DHT22;30214;52.246;14.408;2023-04-09T13:57:45;12.50;99.90
44509;DHT22;30214;52.246;14.408;2023-04-09T14:00:15;12.60;99.90
44509;DHT22;30214;52.246;14.408;2023-04-09T14:02:45;12.70;99.90
44509;DHT22;30214;52.246;14.408;2023-04-09T14:05:13;12.80;99.90
44509;DHT22;30214;52.246;14.408;2023-04-09T14:07:41;12.80;99.90
44509;DHT22;30214;52.246;14.408;2023-04-09T14:10:11;12.80;99.90
44509;DHT22;30214;52.246;14.408;2023-04-09T14:12:40;13.10;99.90
44509;DHT22;30214;52.246;14.408;2023-04-09T14:15:11;13.00;99.90
44509;DHT22;30214;52.246;14.408;2023-04-09T14:17:45;13.00;99.90
44509;DHT22;30214;52.246;14.408;2023-04-09T14:20:14;13.00;99.90
44509;DHT22;30214;52.246;14.408;2023-04-09T14:22:52;13.00;99.90
44509;DHT22;30214;52.246;14.408;2023-04-09T14:25:21;12.90;99.90
44509;DHT22;30214;52.246;14.408;2023-04-09T14:27:53;12.90;99.90
44509;DHT22;30214;52.246;14.408;2023-04-09T14:30:26;12.90;99.90
44509;DHT22;30214;52.246;14.408;2023-04-09T14:32:58;13.30;99.90
44509;DHT22;30214;52.246;14.408;2023-04-09T14:35:26;13.40;99.90
44509;DHT22;30214;52.246;14.408;2023-04-09T14:37:54;13.60;99.90
44509;DHT22;30214;52.246;14.408;2023-04-09T14:40:21;13.80;99.90
44509;DHT22;30214;52.246;14.408;2023-04-09T14:42:51;13.70;99.90
44509;DHT22;30214;52.246;14.408;2023-04-09T14:45:18;13.60;99.90
44509;DHT22;30214;52.246;14.408;2023-04-09T14:47:46;13.20;99.90
44509;DHT22;30214;52.246;14.408;2023-04-09T14:50:15;12.90;99.90
44509;DHT22;30214;52.246;14.408;2023-04-09T14:52:44;12.70;99.90
44509;DHT22;30214;52.246;14.408;2023-04-09T14:55:13;12.60;99.90
44509;DHT22;30214;52.246;14.408;2023-04-09T14:57:41;12.60;99.90
44509;DHT22;30214;52.246;14.408;2023-04-09T15:00:11;12.50;99.90
44509;DHT22;30214;52.246;14.408;2023-04-09T15:02:39;12.50;99.90
44509;DHT22;30214;52.246;14.408;2023-04-09T15:05:08;12.50;99.90
44509;DHT22;30214;52.246;14.408;2023-04-09T15:07:37;12.50;99.90
44509;DHT22;30214;52.246;14.408;2023-04-09T15:10:05;12.40;99.90
44509;DHT22;30214;52.246;14.408;2023-04-09T15:12:37;12.40;99.90
44509;DHT22;30214;52.246;14.408;2023-04-09T15:15:06;12.50;99.90
44509;DHT22;30214;52.246;14.408;2023-04-09T15:17:35;12.50;99.90
44509;DHT22;30214;52.246;14.408;2023-04-09T15:20:03;12.50;99.90
44509;DHT22;30214;52.246;14.408;2023-04-09T15:22:31;12.40;99.90
44509;DHT22;30214;52.246;14.408;2023-04-09T15:25:01;12.40;99.90
44509;DHT22;30214;52.246;14.408;2023-04-09T15:27:28;12.40;99.90
44509;DHT22;30214;52.246;14.408;2023-04-09T15:29:56;12.40;99.90
44509;DHT22;30214;52.246;14.408;2023-04-09T15:32:24;12.40;99.90
44509;DHT22;30214;52.246;14.408;2023-04-09T15:34:55;12.20;99.90
44509;DHT22;30214;52.246;14.408;2023-04-09T15:37:24;12.10;99.90
44509;DHT22;30214;52.246;14.408;2023-04-09T15:39:52;12.20;99.90
44509;DHT22;30214;52.246;14.408;2023-04-09T15:42:24;12.10;99.90